首页
METAR-TAF:

METAR-TAF

机场 :

Yarmouth, 新斯科舍, 加拿大

纬度: 43-50N, 经度: 066-05W, 海拔: 43米

当前天气观测

该预报发布于42分钟前的17:00 UTC
风速9节,风向西南
温度 24°C
湿度 78%
气压 1012 hPa
能見度: 24.1公里
少量云层高于500英尺
少量云层高于1500英尺
少量云层高于7000英尺
散云层高于25000英尺

METAR: CYQI 151700Z 23009KT 15SM FEW005 FEW015 FEW070 SCT250 24/20 A2988 RMK SF1CF1ACC1CI2 SF TR CF TR WIND EST SLP121 DENSITY ALT 1300FT

时间: 14:42 (17:42 UTC)

预报

该预报发布于6小时和2分钟前的11:40 UTC
预报有效从15日的 12点(UTC)到 15日的 24点(UTC)
风速5节,风向
能見度: 10公里
少量云层高于200英尺
散云层高于24000英尺
短暂存在
从 15日的 12点(UTC)到 15日的 14点(UTC)
能見度: 2.4公里
多云层高于200英尺
阴天层高于24000英尺
轻雾
成为
从 15日的 12点(UTC)到 15日的 14点(UTC)
风速10节,风向南转西南
从 15日的 1800点(UTC)
风速10节,风向南转西南
能見度: 10公里
散云层高于400英尺
从 15日的 2100点(UTC)
风速8节,风向南转西南
能見度: 1.6公里
多云层高于400英尺
轻雾
几率 30%
从 15日的 21点(UTC)到 15日的 24点(UTC)
能見度: 2.4公里
层高于200英尺

TAF: CYQI 151140Z 1512/1524 18005KT P6SM FEW002 SCT240 TEMPO 1512/1514 1 1/2SM BR BKN002 OVC240 BECMG 1512/1514 20010KT FM151800 21010KT P6SM SCT004 FM152100 20008KT 6SM BR BKN004 PROB30 1521/1524 1/2SM FG VV002 RMK NXT FCST BY 151800Z

超过4000个机场的气象观测和天气预报(METAR&TAF报告)。

可查询的气象台以黄色和红色小点在地图上表示。

将鼠标移到小点上方,可查看气象台名称。

然后点击查看天气观测和预报。

如需切换地图:点击带黑十字的绿色按钮放大地图;点击带横线的绿色按钮缩小地图;或者点击绿色箭头查看邻近地区的地图。


METAR-TAF: